sensor_id;sensor_type;location;lat;lon;timestamp;temperature;humidity
23147;DHT22;11742;53.532;-1.478;2023-02-18T00:02:02;14.30;87.00
23147;DHT22;11742;53.532;-1.478;2023-02-18T00:04:46;14.30;87.70
23147;DHT22;11742;53.532;-1.478;2023-02-18T00:07:34;14.30;87.50
23147;DHT22;11742;53.532;-1.478;2023-02-18T00:10:18;14.30;88.00
23147;DHT22;11742;53.532;-1.478;2023-02-18T00:13:02;14.30;88.10
23147;DHT22;11742;53.532;-1.478;2023-02-18T00:15:46;14.30;88.50
23147;DHT22;11742;53.532;-1.478;2023-02-18T00:18:31;14.30;88.50
23147;DHT22;11742;53.532;-1.478;2023-02-18T00:21:15;14.40;88.80
23147;DHT22;11742;53.532;-1.478;2023-02-18T00:23:59;14.30;88.90
23147;DHT22;11742;53.532;-1.478;2023-02-18T00:26:44;14.40;88.90
23147;DHT22;11742;53.532;-1.478;2023-02-18T00:29:28;14.40;88.80
23147;DHT22;11742;53.532;-1.478;2023-02-18T00:32:13;14.30;89.60
23147;DHT22;11742;53.532;-1.478;2023-02-18T00:34:57;14.30;89.60
23147;DHT22;11742;53.532;-1.478;2023-02-18T00:37:42;14.40;89.80
23147;DHT22;11742;53.532;-1.478;2023-02-18T00:40:26;14.40;89.80
23147;DHT22;11742;53.532;-1.478;2023-02-18T00:43:10;14.40;89.80
23147;DHT22;11742;53.532;-1.478;2023-02-18T00:45:55;14.40;90.00
23147;DHT22;11742;53.532;-1.478;2023-02-18T00:48:39;14.40;90.10
23147;DHT22;11742;53.532;-1.478;2023-02-18T00:51:23;14.40;90.20
23147;DHT22;11742;53.532;-1.478;2023-02-18T00:54:08;14.40;90.00
23147;DHT22;11742;53.532;-1.478;2023-02-18T00:56:52;14.50;90.10
23147;DHT22;11742;53.532;-1.478;2023-02-18T00:59:36;14.40;90.20
23147;DHT22;11742;53.532;-1.478;2023-02-18T01:02:21;14.40;90.00
23147;DHT22;11742;53.532;-1.478;2023-02-18T01:05:05;14.50;90.00
23147;DHT22;11742;53.532;-1.478;2023-02-18T01:07:49;14.50;90.10
23147;DHT22;11742;53.532;-1.478;2023-02-18T01:10:34;14.50;90.10
23147;DHT22;11742;53.532;-1.478;2023-02-18T01:13:18;14.50;90.30
23147;DHT22;11742;53.532;-1.478;2023-02-18T01:16:02;14.50;90.40
23147;DHT22;11742;53.532;-1.478;2023-02-18T01:18:47;14.50;90.30
23147;DHT22;11742;53.532;-1.478;2023-02-18T01:21:31;14.50;90.30
23147;DHT22;11742;53.532;-1.478;2023-02-18T01:24:15;14.50;90.30
23147;DHT22;11742;53.532;-1.478;2023-02-18T01:26:59;14.50;90.40
23147;DHT22;11742;53.532;-1.478;2023-02-18T01:29:44;14.50;90.50
23147;DHT22;11742;53.532;-1.478;2023-02-18T01:32:28;14.50;90.40
23147;DHT22;11742;53.532;-1.478;2023-02-18T01:35:16;14.50;90.30
23147;DHT22;11742;53.532;-1.478;2023-02-18T01:38:01;14.60;90.40
23147;DHT22;11742;53.532;-1.478;2023-02-18T01:40:47;14.50;90.40
23147;DHT22;11742;53.532;-1.478;2023-02-18T01:43:32;14.60;90.50
23147;DHT22;11742;53.532;-1.478;2023-02-18T01:46:20;14.50;90.20
23147;DHT22;11742;53.532;-1.478;2023-02-18T01:49:05;14.50;90.20
23147;DHT22;11742;53.532;-1.478;2023-02-18T01:51:51;14.50;90.30
23147;DHT22;11742;53.532;-1.478;2023-02-18T01:54:38;14.50;90.10
23147;DHT22;11742;53.532;-1.478;2023-02-18T01:57:30;14.60;90.10
23147;DHT22;11742;53.532;-1.478;2023-02-18T02:00:16;14.60;90.10
23147;DHT22;11742;53.532;-1.478;2023-02-18T02:03:00;14.60;90.20
23147;DHT22;11742;53.532;-1.478;2023-02-18T02:05:44;14.60;90.30
23147;DHT22;11742;53.532;-1.478;2023-02-18T02:08:29;14.50;90.00
23147;DHT22;11742;53.532;-1.478;2023-02-18T02:14:07;14.60;90.00
23147;DHT22;11742;53.532;-1.478;2023-02-18T02:17:03;14.60;90.30
23147;DHT22;11742;53.532;-1.478;2023-02-18T02:25:45;14.60;90.10
23147;DHT22;11742;53.532;-1.478;2023-02-18T02:34:32;14.60;90.00
23147;DHT22;11742;53.532;-1.478;2023-02-18T02:37:20;14.60;90.00
23147;DHT22;11742;53.532;-1.478;2023-02-18T02:43:20;14.60;90.00
23147;DHT22;11742;53.532;-1.478;2023-02-18T02:46:26;14.60;90.00
23147;DHT22;11742;53.532;-1.478;2023-02-18T02:52:02;14.60;90.00
23147;DHT22;11742;53.532;-1.478;2023-02-18T02:54:48;14.60;90.00
23147;DHT22;11742;53.532;-1.478;2023-02-18T03:00:22;14.50;89.80
23147;DHT22;11742;53.532;-1.478;2023-02-18T03:06:33;14.50;89.70
23147;DHT22;11742;53.532;-1.478;2023-02-18T03:09:23;14.50;89.60
23147;DHT22;11742;53.532;-1.478;2023-02-18T03:12:15;14.60;89.70
23147;DHT22;11742;53.532;-1.478;2023-02-18T03:15:12;14.60;89.60
23147;DHT22;11742;53.532;-1.478;2023-02-18T03:18:06;14.50;89.60
23147;DHT22;11742;53.532;-1.478;2023-02-18T03:20:53;14.50;89.80
23147;DHT22;11742;53.532;-1.478;2023-02-18T03:23:38;14.50;89.80
23147;DHT22;11742;53.532;-1.478;2023-02-18T03:26:24;14.50;89.60
23147;DHT22;11742;53.532;-1.478;2023-02-18T03:29:10;14.50;89.60
23147;DHT22;11742;53.532;-1.478;2023-02-18T03:31:58;14.50;89.60
23147;DHT22;11742;53.532;-1.478;2023-02-18T03:34:43;14.50;89.60
23147;DHT22;11742;53.532;-1.478;2023-02-18T03:37:30;14.50;89.60
23147;DHT22;11742;53.532;-1.478;2023-02-18T03:40:14;14.50;89.50
23147;DHT22;11742;53.532;-1.478;2023-02-18T03:43:00;14.50;89.40
23147;DHT22;11742;53.532;-1.478;2023-02-18T03:45:44;14.40;89.50
23147;DHT22;11742;53.532;-1.478;2023-02-18T03:48:28;14.40;89.40
23147;DHT22;11742;53.532;-1.478;2023-02-18T03:51:13;14.40;89.40
23147;DHT22;11742;53.532;-1.478;2023-02-18T03:53:57;14.50;89.60
23147;DHT22;11742;53.532;-1.478;2023-02-18T03:56:41;14.40;89.50
23147;DHT22;11742;53.532;-1.478;2023-02-18T03:59:25;14.40;89.30
23147;DHT22;11742;53.532;-1.478;2023-02-18T04:02:10;14.40;89.30
23147;DHT22;11742;53.532;-1.478;2023-02-18T04:04:54;14.40;89.50
23147;DHT22;11742;53.532;-1.478;2023-02-18T04:07:38;14.40;89.60
23147;DHT22;11742;53.532;-1.478;2023-02-18T04:10:22;14.40;89.60
23147;DHT22;11742;53.532;-1.478;2023-02-18T04:13:06;14.40;89.80
23147;DHT22;11742;53.532;-1.478;2023-02-18T04:15:51;14.40;89.70
23147;DHT22;11742;53.532;-1.478;2023-02-18T04:18:35;14.30;89.70
23147;DHT22;11742;53.532;-1.478;2023-02-18T04:21:19;14.40;89.90
23147;DHT22;11742;53.532;-1.478;2023-02-18T04:24:03;14.30;89.80
23147;DHT22;11742;53.532;-1.478;2023-02-18T04:26:48;14.30;89.80
23147;DHT22;11742;53.532;-1.478;2023-02-18T04:29:32;14.40;89.90
23147;DHT22;11742;53.532;-1.478;2023-02-18T04:32:16;14.30;89.90
23147;DHT22;11742;53.532;-1.478;2023-02-18T04:35:00;14.30;90.00
23147;DHT22;11742;53.532;-1.478;2023-02-18T04:37:45;14.30;90.00
23147;DHT22;11742;53.532;-1.478;2023-02-18T04:40:29;14.30;90.10
23147;DHT22;11742;53.532;-1.478;2023-02-18T04:43:13;14.30;90.10
23147;DHT22;11742;53.532;-1.478;2023-02-18T04:45:57;14.30;90.00
23147;DHT22;11742;53.532;-1.478;2023-02-18T04:48:41;14.30;90.00
23147;DHT22;11742;53.532;-1.478;2023-02-18T04:51:26;14.30;90.10
23147;DHT22;11742;53.532;-1.478;2023-02-18T04:54:10;14.30;90.00
23147;DHT22;11742;53.532;-1.478;2023-02-18T04:56:54;14.30;90.10
23147;DHT22;11742;53.532;-1.478;2023-02-18T04:59:39;14.30;90.20
23147;DHT22;11742;53.532;-1.478;2023-02-18T05:02:23;14.30;90.20
23147;DHT22;11742;53.532;-1.478;2023-02-18T05:05:07;14.30;90.20
23147;DHT22;11742;53.532;-1.478;2023-02-18T05:07:51;14.30;90.30
23147;DHT22;11742;53.532;-1.478;2023-02-18T05:10:36;14.30;90.40
23147;DHT22;11742;53.532;-1.478;2023-02-18T05:13:20;14.30;90.40
23147;DHT22;11742;53.532;-1.478;2023-02-18T05:16:06;14.30;90.40
23147;DHT22;11742;53.532;-1.478;2023-02-18T05:18:50;14.30;90.40
23147;DHT22;11742;53.532;-1.478;2023-02-18T05:21:34;14.30;90.40
23147;DHT22;11742;53.532;-1.478;2023-02-18T05:24:18;14.30;90.40
23147;DHT22;11742;53.532;-1.478;2023-02-18T05:27:02;14.30;90.50
23147;DHT22;11742;53.532;-1.478;2023-02-18T05:29:46;14.30;90.40
23147;DHT22;11742;53.532;-1.478;2023-02-18T05:32:31;14.20;90.50
23147;DHT22;11742;53.532;-1.478;2023-02-18T05:35:15;14.30;90.60
23147;DHT22;11742;53.532;-1.478;2023-02-18T05:37:59;14.30;90.60
23147;DHT22;11742;53.532;-1.478;2023-02-18T05:40:43;14.30;90.70
23147;DHT22;11742;53.532;-1.478;2023-02-18T05:43:27;14.30;90.70
23147;DHT22;11742;53.532;-1.478;2023-02-18T05:46:12;14.30;90.80
23147;DHT22;11742;53.532;-1.478;2023-02-18T05:48:56;14.20;90.70
23147;DHT22;11742;53.532;-1.478;2023-02-18T05:51:40;14.30;90.70
23147;DHT22;11742;53.532;-1.478;2023-02-18T05:54:27;14.20;90.60
23147;DHT22;11742;53.532;-1.478;2023-02-18T05:57:13;14.30;90.80
23147;DHT22;11742;53.532;-1.478;2023-02-18T05:59:57;14.30;90.70
23147;DHT22;11742;53.532;-1.478;2023-02-18T06:02:41;14.30;90.90
23147;DHT22;11742;53.532;-1.478;2023-02-18T06:05:26;14.30;90.80
23147;DHT22;11742;53.532;-1.478;2023-02-18T06:08:10;14.30;90.80
23147;DHT22;11742;53.532;-1.478;2023-02-18T06:10:54;14.30;90.90
23147;DHT22;11742;53.532;-1.478;2023-02-18T06:13:38;14.30;90.80
23147;DHT22;11742;53.532;-1.478;2023-02-18T06:16:22;14.20;90.80
23147;DHT22;11742;53.532;-1.478;2023-02-18T06:19:07;14.30;90.80
23147;DHT22;11742;53.532;-1.478;2023-02-18T06:21:51;14.30;90.80
23147;DHT22;11742;53.532;-1.478;2023-02-18T06:24:35;14.30;90.80
23147;DHT22;11742;53.532;-1.478;2023-02-18T06:27:20;14.30;90.80
23147;DHT22;11742;53.532;-1.478;2023-02-18T06:30:04;14.30;90.80
23147;DHT22;11742;53.532;-1.478;2023-02-18T06:32:49;14.30;90.80
23147;DHT22;11742;53.532;-1.478;2023-02-18T06:35:33;14.30;90.70
23147;DHT22;11742;53.532;-1.478;2023-02-18T06:38:18;14.30;90.70
23147;DHT22;11742;53.532;-1.478;2023-02-18T06:41:03;14.30;90.60
23147;DHT22;11742;53.532;-1.478;2023-02-18T06:43:47;14.30;90.50
23147;DHT22;11742;53.532;-1.478;2023-02-18T06:46:32;14.30;90.40
23147;DHT22;11742;53.532;-1.478;2023-02-18T06:49:16;14.30;90.40
23147;DHT22;11742;53.532;-1.478;2023-02-18T06:52:00;14.20;90.30
23147;DHT22;11742;53.532;-1.478;2023-02-18T06:54:44;14.20;90.20
23147;DHT22;11742;53.532;-1.478;2023-02-18T06:57:29;14.20;90.20
23147;DHT22;11742;53.532;-1.478;2023-02-18T07:00:13;14.20;90.20
23147;DHT22;11742;53.532;-1.478;2023-02-18T07:02:57;14.20;90.10
23147;DHT22;11742;53.532;-1.478;2023-02-18T07:05:41;14.20;90.00
23147;DHT22;11742;53.532;-1.478;2023-02-18T07:08:26;14.20;90.00
23147;DHT22;11742;53.532;-1.478;2023-02-18T07:11:10;14.20;90.00
23147;DHT22;11742;53.532;-1.478;2023-02-18T07:13:54;14.20;90.00
23147;DHT22;11742;53.532;-1.478;2023-02-18T07:16:38;14.20;90.00
23147;DHT22;11742;53.532;-1.478;2023-02-18T07:19:23;14.20;89.90
23147;DHT22;11742;53.532;-1.478;2023-02-18T07:22:07;14.20;89.90
23147;DHT22;11742;53.532;-1.478;2023-02-18T07:24:51;14.20;89.70
23147;DHT22;11742;53.532;-1.478;2023-02-18T07:27:35;14.20;89.80
23147;DHT22;11742;53.532;-1.478;2023-02-18T07:30:20;14.20;89.70
23147;DHT22;11742;53.532;-1.478;2023-02-18T07:33:04;14.10;89.60
23147;DHT22;11742;53.532;-1.478;2023-02-18T07:35:52;14.20;89.70
23147;DHT22;11742;53.532;-1.478;2023-02-18T07:38:37;14.20;89.70
23147;DHT22;11742;53.532;-1.478;2023-02-18T07:41:21;14.10;89.60
23147;DHT22;11742;53.532;-1.478;2023-02-18T07:44:05;14.20;89.70
23147;DHT22;11742;53.532;-1.478;2023-02-18T07:46:50;14.10;89.60
23147;DHT22;11742;53.532;-1.478;2023-02-18T07:49:34;14.20;89.60
23147;DHT22;11742;53.532;-1.478;2023-02-18T07:52:18;14.10;89.50
23147;DHT22;11742;53.532;-1.478;2023-02-18T07:55:02;14.10;89.60
23147;DHT22;11742;53.532;-1.478;2023-02-18T07:57:47;14.10;89.60
23147;DHT22;11742;53.532;-1.478;2023-02-18T08:00:40;14.10;89.60
23147;DHT22;11742;53.532;-1.478;2023-02-18T08:03:26;14.10;89.70
23147;DHT22;11742;53.532;-1.478;2023-02-18T08:06:20;14.10;89.80
23147;DHT22;11742;53.532;-1.478;2023-02-18T08:09:05;14.10;90.00
23147;DHT22;11742;53.532;-1.478;2023-02-18T08:11:50;14.10;90.00
23147;DHT22;11742;53.532;-1.478;2023-02-18T08:14:34;14.20;90.10
23147;DHT22;11742;53.532;-1.478;2023-02-18T08:17:18;14.10;90.20
23147;DHT22;11742;53.532;-1.478;2023-02-18T08:20:02;14.10;90.20
23147;DHT22;11742;53.532;-1.478;2023-02-18T08:22:48;14.10;90.30
23147;DHT22;11742;53.532;-1.478;2023-02-18T08:25:32;14.20;90.30
23147;DHT22;11742;53.532;-1.478;2023-02-18T08:28:20;14.20;90.20
23147;DHT22;11742;53.532;-1.478;2023-02-18T08:31:05;14.20;90.30
23147;DHT22;11742;53.532;-1.478;2023-02-18T08:33:49;14.20;90.50
23147;DHT22;11742;53.532;-1.478;2023-02-18T08:36:34;14.30;90.60
23147;DHT22;11742;53.532;-1.478;2023-02-18T08:39:18;14.30;90.50
23147;DHT22;11742;53.532;-1.478;2023-02-18T08:42:03;14.30;90.50
23147;DHT22;11742;53.532;-1.478;2023-02-18T08:44:47;14.30;90.50
23147;DHT22;11742;53.532;-1.478;2023-02-18T08:47:31;14.40;90.60
23147;DHT22;11742;53.532;-1.478;2023-02-18T08:50:16;14.40;90.60
23147;DHT22;11742;53.532;-1.478;2023-02-18T08:53:00;14.40;90.50
23147;DHT22;11742;53.532;-1.478;2023-02-18T08:55:46;14.40;90.40
23147;DHT22;11742;53.532;-1.478;2023-02-18T08:58:30;14.40;90.40
23147;DHT22;11742;53.532;-1.478;2023-02-18T09:01:14;14.40;90.30
23147;DHT22;11742;53.532;-1.478;2023-02-18T09:03:59;14.50;90.40
23147;DHT22;11742;53.532;-1.478;2023-02-18T09:06:43;14.50;90.40
23147;DHT22;11742;53.532;-1.478;2023-02-18T09:09:27;14.50;90.30
23147;DHT22;11742;53.532;-1.478;2023-02-18T09:12:11;14.50;90.40
23147;DHT22;11742;53.532;-1.478;2023-02-18T09:14:55;14.50;90.40
23147;DHT22;11742;53.532;-1.478;2023-02-18T09:17:39;14.60;90.60
23147;DHT22;11742;53.532;-1.478;2023-02-18T09:20:24;14.60;90.50
23147;DHT22;11742;53.532;-1.478;2023-02-18T09:23:09;14.60;90.50
23147;DHT22;11742;53.532;-1.478;2023-02-18T09:25:53;14.70;90.60
23147;DHT22;11742;53.532;-1.478;2023-02-18T09:28:37;14.70;90.40
23147;DHT22;11742;53.532;-1.478;2023-02-18T09:31:22;14.70;90.30
23147;DHT22;11742;53.532;-1.478;2023-02-18T09:34:07;14.70;90.20
23147;DHT22;11742;53.532;-1.478;2023-02-18T09:36:51;14.70;90.20
23147;DHT22;11742;53.532;-1.478;2023-02-18T09:39:36;14.80;90.00
23147;DHT22;11742;53.532;-1.478;2023-02-18T09:42:21;14.80;90.00
23147;DHT22;11742;53.532;-1.478;2023-02-18T09:45:09;14.80;90.00
23147;DHT22;11742;53.532;-1.478;2023-02-18T09:47:54;14.80;89.90
23147;DHT22;11742;53.532;-1.478;2023-02-18T09:50:39;14.80;89.70
23147;DHT22;11742;53.532;-1.478;2023-02-18T09:53:23;14.80;89.50
23147;DHT22;11742;53.532;-1.478;2023-02-18T09:56:08;14.90;89.40
23147;DHT22;11742;53.532;-1.478;2023-02-18T09:58:55;14.90;89.30
23147;DHT22;11742;53.532;-1.478;2023-02-18T10:01:40;14.90;89.30
23147;DHT22;11742;53.532;-1.478;2023-02-18T10:04:39;14.90;89.30
23147;DHT22;11742;53.532;-1.478;2023-02-18T10:07:28;14.90;89.30
23147;DHT22;11742;53.532;-1.478;2023-02-18T10:10:22;14.90;89.20
23147;DHT22;11742;53.532;-1.478;2023-02-18T10:13:12;15.00;89.20
23147;DHT22;11742;53.532;-1.478;2023-02-18T10:15:57;14.90;89.20
23147;DHT22;11742;53.532;-1.478;2023-02-18T10:18:42;14.90;89.20
23147;DHT22;11742;53.532;-1.478;2023-02-18T10:21:28;15.00;89.30
23147;DHT22;11742;53.532;-1.478;2023-02-18T10:27:12;15.00;89.50
23147;DHT22;11742;53.532;-1.478;2023-02-18T10:50:26;15.10;89.70
23147;DHT22;11742;53.532;-1.478;2023-02-18T10:53:20;15.10;89.60
23147;DHT22;11742;53.532;-1.478;2023-02-18T10:56:05;15.10;89.60
23147;DHT22;11742;53.532;-1.478;2023-02-18T10:58:50;15.10;89.60
23147;DHT22;11742;53.532;-1.478;2023-02-18T11:01:37;15.10;89.60
23147;DHT22;11742;53.532;-1.478;2023-02-18T11:04:27;15.10;89.50
23147;DHT22;11742;53.532;-1.478;2023-02-18T11:07:12;15.20;89.60
23147;DHT22;11742;53.532;-1.478;2023-02-18T11:10:01;15.20;89.60
23147;DHT22;11742;53.532;-1.478;2023-02-18T11:12:56;15.20;89.50
23147;DHT22;11742;53.532;-1.478;2023-02-18T11:18:39;15.20;89.20
23147;DHT22;11742;53.532;-1.478;2023-02-18T11:21:28;15.20;89.20
23147;DHT22;11742;53.532;-1.478;2023-02-18T11:24:15;15.20;89.60
23147;DHT22;11742;53.532;-1.478;2023-02-18T11:27:00;15.20;89.20
23147;DHT22;11742;53.532;-1.478;2023-02-18T11:29:44;15.20;89.10
23147;DHT22;11742;53.532;-1.478;2023-02-18T11:32:29;15.30;89.10
23147;DHT22;11742;53.532;-1.478;2023-02-18T11:35:21;15.20;89.00
23147;DHT22;11742;53.532;-1.478;2023-02-18T11:38:13;15.30;89.10
23147;DHT22;11742;53.532;-1.478;2023-02-18T11:41:05;15.30;89.30
23147;DHT22;11742;53.532;-1.478;2023-02-18T11:43:50;15.30;89.40
23147;DHT22;11742;53.532;-1.478;2023-02-18T11:46:35;15.30;89.40
23147;DHT22;11742;53.532;-1.478;2023-02-18T11:49:20;15.30;89.10
23147;DHT22;11742;53.532;-1.478;2023-02-18T11:52:27;15.40;89.00
23147;DHT22;11742;53.532;-1.478;2023-02-18T11:58:02;15.40;89.00
23147;DHT22;11742;53.532;-1.478;2023-02-18T12:00:47;15.40;89.00
23147;DHT22;11742;53.532;-1.478;2023-02-18T12:09:30;15.50;88.80
23147;DHT22;11742;53.532;-1.478;2023-02-18T12:12:19;15.50;88.80
23147;DHT22;11742;53.532;-1.478;2023-02-18T12:15:08;15.50;88.90
23147;DHT22;11742;53.532;-1.478;2023-02-18T12:17:56;15.50;89.00
23147;DHT22;11742;53.532;-1.478;2023-02-18T12:20:46;15.50;89.00
23147;DHT22;11742;53.532;-1.478;2023-02-18T12:26:23;15.60;89.10
23147;DHT22;11742;53.532;-1.478;2023-02-18T12:29:13;15.60;88.90
23147;DHT22;11742;53.532;-1.478;2023-02-18T12:35:00;15.60;88.80
23147;DHT22;11742;53.532;-1.478;2023-02-18T12:38:01;15.60;88.70
23147;DHT22;11742;53.532;-1.478;2023-02-18T12:46:32;15.70;88.70
23147;DHT22;11742;53.532;-1.478;2023-02-18T12:55:05;15.70;88.70
23147;DHT22;11742;53.532;-1.478;2023-02-18T12:58:09;15.70;88.60
23147;DHT22;11742;53.532;-1.478;2023-02-18T13:04:14;15.80;89.10
23147;DHT22;11742;53.532;-1.478;2023-02-18T13:15:59;16.00;89.70
23147;DHT22;11742;53.532;-1.478;2023-02-18T13:18:57;16.00;89.30
23147;DHT22;11742;53.532;-1.478;2023-02-18T13:21:42;16.00;89.30
23147;DHT22;11742;53.532;-1.478;2023-02-18T13:24:38;16.10;89.30
23147;DHT22;11742;53.532;-1.478;2023-02-18T13:27:24;16.10;89.40
23147;DHT22;11742;53.532;-1.478;2023-02-18T13:41:40;16.30;88.50
23147;DHT22;11742;53.532;-1.478;2023-02-18T13:47:09;16.30;88.30
23147;DHT22;11742;53.532;-1.478;2023-02-18T13:49:53;16.30;88.10
23147;DHT22;11742;53.532;-1.478;2023-02-18T13:52:37;16.30;88.10
23147;DHT22;11742;53.532;-1.478;2023-02-18T13:55:22;16.40;87.90
23147;DHT22;11742;53.532;-1.478;2023-02-18T13:58:13;16.40;87.60
23147;DHT22;11742;53.532;-1.478;2023-02-18T14:01:11;16.40;87.40
23147;DHT22;11742;53.532;-1.478;2023-02-18T14:03:57;16.40;87.30
23147;DHT22;11742;53.532;-1.478;2023-02-18T14:07:15;16.40;87.30
23147;DHT22;11742;53.532;-1.478;2023-02-18T14:09:47;16.40;87.10
23147;DHT22;11742;53.532;-1.478;2023-02-18T14:23:56;16.50;86.80
23147;DHT22;11742;53.532;-1.478;2023-02-18T14:26:43;16.50;86.80
23147;DHT22;11742;53.532;-1.478;2023-02-18T14:29:29;16.50;86.60
23147;DHT22;11742;53.532;-1.478;2023-02-18T14:32:15;16.50;86.60
23147;DHT22;11742;53.532;-1.478;2023-02-18T14:49:47;16.50;87.20
23147;DHT22;11742;53.532;-1.478;2023-02-18T14:52:33;16.50;87.00
23147;DHT22;11742;53.532;-1.478;2023-02-18T14:55:21;16.50;86.90
23147;DHT22;11742;53.532;-1.478;2023-02-18T15:03:57;16.50;87.00
23147;DHT22;11742;53.532;-1.478;2023-02-18T15:06:41;16.50;87.00
23147;DHT22;11742;53.532;-1.478;2023-02-18T15:09:25;16.50;86.90
23147;DHT22;11742;53.532;-1.478;2023-02-18T15:12:11;16.50;86.90
23147;DHT22;11742;53.532;-1.478;2023-02-18T15:14:58;16.60;87.00
23147;DHT22;11742;53.532;-1.478;2023-02-18T15:17:44;16.50;86.80
23147;DHT22;11742;53.532;-1.478;2023-02-18T15:20:31;16.60;86.70
23147;DHT22;11742;53.532;-1.478;2023-02-18T15:23:16;16.50;86.60
23147;DHT22;11742;53.532;-1.478;2023-02-18T15:26:00;16.50;86.70
23147;DHT22;11742;53.532;-1.478;2023-02-18T15:28:57;16.50;86.60
23147;DHT22;11742;53.532;-1.478;2023-02-18T15:31:42;16.60;86.70
23147;DHT22;11742;53.532;-1.478;2023-02-18T15:37:12;16.60;86.70
23147;DHT22;11742;53.532;-1.478;2023-02-18T15:39:57;16.60;86.80
23147;DHT22;11742;53.532;-1.478;2023-02-18T15:42:41;16.60;86.70
23147;DHT22;11742;53.532;-1.478;2023-02-18T15:45:30;16.50;86.60
23147;DHT22;11742;53.532;-1.478;2023-02-18T15:51:05;16.60;86.70
23147;DHT22;11742;53.532;-1.478;2023-02-18T15:53:54;16.60;86.70
23147;DHT22;11742;53.532;-1.478;2023-02-18T15:56:40;16.60;86.70
23147;DHT22;11742;53.532;-1.478;2023-02-18T15:59:28;16.50;86.40
23147;DHT22;11742;53.532;-1.478;2023-02-18T16:02:15;16.60;86.30
23147;DHT22;11742;53.532;-1.478;2023-02-18T16:05:00;16.60;86.30
23147;DHT22;11742;53.532;-1.478;2023-02-18T16:07:50;16.60;86.30
23147;DHT22;11742;53.532;-1.478;2023-02-18T16:10:38;16.60;86.30
23147;DHT22;11742;53.532;-1.478;2023-02-18T16:13:25;16.60;86.30
23147;DHT22;11742;53.532;-1.478;2023-02-18T16:16:19;16.50;86.20
23147;DHT22;11742;53.532;-1.478;2023-02-18T16:19:20;16.60;86.30
23147;DHT22;11742;53.532;-1.478;2023-02-18T16:22:16;16.50;86.10
23147;DHT22;11742;53.532;-1.478;2023-02-18T16:28:14;16.50;86.00
23147;DHT22;11742;53.532;-1.478;2023-02-18T16:30:59;16.50;86.00
23147;DHT22;11742;53.532;-1.478;2023-02-18T16:33:43;16.50;86.00
23147;DHT22;11742;53.532;-1.478;2023-02-18T16:36:27;16.50;86.00
23147;DHT22;11742;53.532;-1.478;2023-02-18T16:39:11;16.50;85.90
23147;DHT22;11742;53.532;-1.478;2023-02-18T16:41:56;16.50;85.90
23147;DHT22;11742;53.532;-1.478;2023-02-18T16:44:40;16.50;85.90
23147;DHT22;11742;53.532;-1.478;2023-02-18T16:47:24;16.50;85.90
23147;DHT22;11742;53.532;-1.478;2023-02-18T16:50:21;16.50;85.90
23147;DHT22;11742;53.532;-1.478;2023-02-18T16:53:05;16.50;85.80
23147;DHT22;11742;53.532;-1.478;2023-02-18T16:55:50;16.50;85.70
23147;DHT22;11742;53.532;-1.478;2023-02-18T16:58:34;16.50;85.70
23147;DHT22;11742;53.532;-1.478;2023-02-18T17:04:24;16.40;85.60
23147;DHT22;11742;53.532;-1.478;2023-02-18T17:07:09;16.40;85.50
23147;DHT22;11742;53.532;-1.478;2023-02-18T17:09:53;16.40;85.50
23147;DHT22;11742;53.532;-1.478;2023-02-18T17:12:38;16.40;85.50
23147;DHT22;11742;53.532;-1.478;2023-02-18T17:15:27;16.40;85.40
23147;DHT22;11742;53.532;-1.478;2023-02-18T17:18:12;16.40;85.40
23147;DHT22;11742;53.532;-1.478;2023-02-18T17:20:56;16.40;85.30
23147;DHT22;11742;53.532;-1.478;2023-02-18T17:23:41;16.40;85.20
23147;DHT22;11742;53.532;-1.478;2023-02-18T17:26:26;16.40;85.20
23147;DHT22;11742;53.532;-1.478;2023-02-18T17:29:10;16.40;85.20
23147;DHT22;11742;53.532;-1.478;2023-02-18T17:31:55;16.40;85.20
23147;DHT22;11742;53.532;-1.478;2023-02-18T17:34:40;16.30;85.20
23147;DHT22;11742;53.532;-1.478;2023-02-18T17:37:24;16.30;85.20
23147;DHT22;11742;53.532;-1.478;2023-02-18T17:40:12;16.30;85.20
23147;DHT22;11742;53.532;-1.478;2023-02-18T17:42:56;16.30;84.90
23147;DHT22;11742;53.532;-1.478;2023-02-18T17:45:51;16.30;84.80
23147;DHT22;11742;53.532;-1.478;2023-02-18T17:48:35;16.30;85.00
23147;DHT22;11742;53.532;-1.478;2023-02-18T17:51:24;16.30;85.10
23147;DHT22;11742;53.532;-1.478;2023-02-18T17:54:12;16.30;84.90
23147;DHT22;11742;53.532;-1.478;2023-02-18T17:56:56;16.30;85.10
23147;DHT22;11742;53.532;-1.478;2023-02-18T17:59:40;16.20;85.10
23147;DHT22;11742;53.532;-1.478;2023-02-18T18:02:26;16.20;84.90
23147;DHT22;11742;53.532;-1.478;2023-02-18T18:05:53;16.20;85.00
23147;DHT22;11742;53.532;-1.478;2023-02-18T18:08:18;16.20;84.90
23147;DHT22;11742;53.532;-1.478;2023-02-18T18:11:02;16.20;84.90
23147;DHT22;11742;53.532;-1.478;2023-02-18T18:13:46;16.20;84.90
23147;DHT22;11742;53.532;-1.478;2023-02-18T18:16:30;16.20;84.90
23147;DHT22;11742;53.532;-1.478;2023-02-18T18:19:15;16.20;84.80
23147;DHT22;11742;53.532;-1.478;2023-02-18T18:21:59;16.10;84.70
23147;DHT22;11742;53.532;-1.478;2023-02-18T18:24:43;16.10;84.70
23147;DHT22;11742;53.532;-1.478;2023-02-18T18:27:27;16.10;84.70
23147;DHT22;11742;53.532;-1.478;2023-02-18T18:30:13;16.10;84.80
23147;DHT22;11742;53.532;-1.478;2023-02-18T18:32:58;16.00;84.70
23147;DHT22;11742;53.532;-1.478;2023-02-18T18:35:43;16.00;84.70
23147;DHT22;11742;53.532;-1.478;2023-02-18T18:38:28;16.00;84.70
23147;DHT22;11742;53.532;-1.478;2023-02-18T18:41:13;16.00;84.80
23147;DHT22;11742;53.532;-1.478;2023-02-18T18:43:58;16.00;84.70
23147;DHT22;11742;53.532;-1.478;2023-02-18T18:46:42;16.00;84.70
23147;DHT22;11742;53.532;-1.478;2023-02-18T18:49:26;16.00;84.70
23147;DHT22;11742;53.532;-1.478;2023-02-18T18:52:11;16.00;84.80
23147;DHT22;11742;53.532;-1.478;2023-02-18T18:54:58;16.00;84.90
23147;DHT22;11742;53.532;-1.478;2023-02-18T18:57:42;15.90;84.70
23147;DHT22;11742;53.532;-1.478;2023-02-18T19:00:31;15.90;84.80
23147;DHT22;11742;53.532;-1.478;2023-02-18T19:03:15;15.90;84.90
23147;DHT22;11742;53.532;-1.478;2023-02-18T19:06:00;15.90;85.40
23147;DHT22;11742;53.532;-1.478;2023-02-18T19:08:44;15.90;84.90
23147;DHT22;11742;53.532;-1.478;2023-02-18T19:11:30;15.90;84.90
23147;DHT22;11742;53.532;-1.478;2023-02-18T19:14:15;15.90;84.90
23147;DHT22;11742;53.532;-1.478;2023-02-18T19:17:01;15.90;84.90
23147;DHT22;11742;53.532;-1.478;2023-02-18T19:19:46;15.80;84.90
23147;DHT22;11742;53.532;-1.478;2023-02-18T19:22:30;15.80;84.90
23147;DHT22;11742;53.532;-1.478;2023-02-18T19:25:15;15.80;84.90
23147;DHT22;11742;53.532;-1.478;2023-02-18T19:27:59;15.80;84.90
23147;DHT22;11742;53.532;-1.478;2023-02-18T19:30:43;15.80;84.90
23147;DHT22;11742;53.532;-1.478;2023-02-18T19:33:29;15.80;84.90
23147;DHT22;11742;53.532;-1.478;2023-02-18T19:36:13;15.80;84.90
23147;DHT22;11742;53.532;-1.478;2023-02-18T19:38:57;15.80;84.90
23147;DHT22;11742;53.532;-1.478;2023-02-18T19:41:41;15.70;84.80